Time;durP1;ratioP1;P1;durP2;ratioP2;P2;SDS_P1;SDS_P2;PMS_P1;PMS_P2;Temp;Humidity;BMP_temperature;BMP_pressure;BME280_temperature;BME280_humidity;BME280_pressure;Samples;Min_cycle;Max_cycle;Signal;HPM_P1;HPM_P2
2022/07/04 00:01:09;;;;;;;;;0.00;0.00;;;;;;;;4959719;28;9837;-84
2022/07/04 00:03:36;;;;;;;;;0.00;0.00;;;;;;;;4962216;28;9193;-83
2022/07/04 00:06:04;;;;;;;;;0.00;0.00;;;;;;;;4954508;28;9122;-84
2022/07/04 00:08:32;;;;;;;;;0.00;0.00;;;;;;;;4960238;28;10443;-83
2022/07/04 00:10:59;;;;;;;;;0.00;0.00;;;;;;;;4963681;28;9312;-82
2022/07/04 00:13:27;;;;;;;;;0.00;0.00;;;;;;;;4957170;28;9365;-84
2022/07/04 00:15:54;;;;;;;;;0.00;0.00;;;;;;;;4942545;28;9363;-83
2022/07/04 00:18:23;;;;;;;;;0.00;0.00;;;;;;;;4937173;28;9370;-84
2022/07/04 00:20:50;;;;;;;;;0.00;0.00;;;;;;;;4941013;28;9263;-84
2022/07/04 00:23:18;;;;;;;;;0.00;0.00;;;;;;;;4957225;28;9334;-85
2022/07/04 00:25:46;;;;;;;;;0.00;0.00;;;;;;;;4953218;28;9306;-84
2022/07/04 00:28:14;;;;;;;;;0.00;0.00;;;;;;;;4956049;28;9446;-85
2022/07/04 00:30:41;;;;;;;;;0.00;0.00;;;;;;;;4965019;28;9178;-83
2022/07/04 00:33:13;;;;;;;;;0.00;0.00;;;;;;;;4959180;28;9217;-85
2022/07/04 00:35:42;;;;;;;;;0.00;0.00;;;;;;;;4955919;28;9208;-85
2022/07/04 00:38:09;;;;;;;;;0.00;0.00;;;;;;;;4954721;28;9201;-85
2022/07/04 00:40:37;;;;;;;;;1.00;0.00;;;;;;;;4953612;28;9236;-84
2022/07/04 00:43:05;;;;;;;;;0.00;0.00;;;;;;;;4961656;28;9193;-84
2022/07/04 00:45:33;;;;;;;;;0.00;0.00;;;;;;;;4963627;28;9445;-84
2022/07/04 00:48:00;;;;;;;;;0.00;0.00;;;;;;;;4964350;28;9350;-82
2022/07/04 00:50:28;;;;;;;;;0.00;0.00;;;;;;;;4955670;28;9516;-84
2022/07/04 00:52:57;;;;;;;;;0.00;0.00;;;;;;;;4961785;28;9434;-84
2022/07/04 00:55:25;;;;;;;;;0.00;0.00;;;;;;;;4960974;28;9639;-82
2022/07/04 00:57:52;;;;;;;;;0.00;0.00;;;;;;;;4956871;28;9449;-82
2022/07/04 01:00:19;;;;;;;;;0.00;0.00;;;;;;;;4959635;28;9513;-82
2022/07/04 01:02:47;;;;;;;;;0.00;0.00;;;;;;;;4965910;28;9637;-83
2022/07/04 01:05:15;;;;;;;;;0.00;0.00;;;;;;;;4946948;28;9512;-83
2022/07/04 01:07:43;;;;;;;;;1.00;0.00;;;;;;;;4955625;28;9661;-83
2022/07/04 01:10:13;;;;;;;;;0.00;0.00;;;;;;;;4955844;28;9586;-84
2022/07/04 01:12:40;;;;;;;;;0.00;0.00;;;;;;;;4956189;28;9587;-86
2022/07/04 01:15:08;;;;;;;;;0.00;0.00;;;;;;;;4941544;28;9594;-83
2022/07/04 01:17:36;;;;;;;;;0.00;0.00;;;;;;;;4965889;28;9517;-85
2022/07/04 01:20:05;;;;;;;;;1.00;0.00;;;;;;;;4965197;28;9679;-87
2022/07/04 01:22:34;;;;;;;;;0.00;0.00;;;;;;;;4941949;28;9869;-86
2022/07/04 01:25:03;;;;;;;;;0.00;0.00;;;;;;;;4946404;28;10461;-84
2022/07/04 01:27:33;;;;;;;;;1.00;0.00;;;;;;;;4956667;28;10388;-88
2022/07/04 01:30:00;;;;;;;;;0.00;0.00;;;;;;;;4954200;28;10562;-87
2022/07/04 01:32:28;;;;;;;;;0.00;0.00;;;;;;;;4952708;28;9819;-87
2022/07/04 01:35:42;;;;;;;;;0.00;0.00;;;;;;;;4951873;28;9731;-86
2022/07/04 01:38:11;;;;;;;;;0.00;0.00;;;;;;;;4965467;28;9730;-88
2022/07/04 01:40:39;;;;;;;;;0.00;0.00;;;;;;;;4965985;28;9785;-87
2022/07/04 01:43:06;;;;;;;;;1.00;0.00;;;;;;;;4958816;28;9767;-87
2022/07/04 01:45:37;;;;;;;;;0.00;0.00;;;;;;;;4956050;28;9904;-84
2022/07/04 01:48:06;;;;;;;;;0.00;0.00;;;;;;;;4956333;28;10661;-86
2022/07/04 01:50:33;;;;;;;;;0.00;0.00;;;;;;;;4943384;28;9830;-85
2022/07/04 01:53:00;;;;;;;;;0.00;0.00;;;;;;;;4962778;28;9877;-84
2022/07/04 01:55:31;;;;;;;;;0.00;0.00;;;;;;;;4944070;28;10636;-86
2022/07/04 01:58:00;;;;;;;;;0.00;0.00;;;;;;;;4954882;28;10037;-86
2022/07/04 02:03:12;;;;;;;;;0.00;0.00;;;;;;;;4963948;28;10735;-86
2022/07/04 02:05:39;;;;;;;;;0.00;0.00;;;;;;;;4956518;28;9908;-85
2022/07/04 02:08:08;;;;;;;;;0.00;0.00;;;;;;;;4943141;28;9961;-86
2022/07/04 02:10:37;;;;;;;;;0.00;0.00;;;;;;;;4965068;28;10141;-86
2022/07/04 02:13:03;;;;;;;;;0.75;0.00;;;;;;;;4963218;28;10154;-86
2022/07/04 02:15:33;;;;;;;;;0.00;0.00;;;;;;;;4958208;28;10118;-86
2022/07/04 02:18:02;;;;;;;;;0.00;0.00;;;;;;;;4954925;28;10330;-86
2022/07/04 02:20:31;;;;;;;;;0.00;0.00;;;;;;;;4955438;28;10146;-86
2022/07/04 02:22:59;;;;;;;;;0.00;0.00;;;;;;;;4954007;28;10234;-87
2022/07/04 02:25:26;;;;;;;;;0.00;0.00;;;;;;;;4960015;28;10327;-87
2022/07/04 02:27:55;;;;;;;;;0.00;0.00;;;;;;;;4937204;28;10191;-86
2022/07/04 02:30:24;;;;;;;;;0.00;0.00;;;;;;;;4956954;28;10148;-87
2022/07/04 02:32:51;;;;;;;;;0.00;0.00;;;;;;;;4944925;28;10208;-87
2022/07/04 02:35:18;;;;;;;;;0.00;0.00;;;;;;;;4958953;28;10131;-85
2022/07/04 02:37:46;;;;;;;;;0.00;0.00;;;;;;;;4964346;28;10215;-86
2022/07/04 02:40:13;;;;;;;;;0.00;0.00;;;;;;;;4960187;28;10089;-85
2022/07/04 02:42:40;;;;;;;;;0.00;0.00;;;;;;;;4943736;28;10080;-85
2022/07/04 02:45:13;;;;;;;;;0.00;0.00;;;;;;;;4958893;28;10161;-86
2022/07/04 02:47:40;;;;;;;;;0.00;0.00;;;;;;;;4955327;28;10152;-86
2022/07/04 02:50:08;;;;;;;;;0.00;0.00;;;;;;;;4934712;28;10189;-85
2022/07/04 02:52:36;;;;;;;;;0.00;0.00;;;;;;;;4955990;28;10108;-86
2022/07/04 02:55:03;;;;;;;;;0.00;0.00;;;;;;;;4938550;28;10113;-85
2022/07/04 02:57:30;;;;;;;;;0.00;0.00;;;;;;;;4956403;28;10133;-86
2022/07/04 02:59:58;;;;;;;;;0.00;0.00;;;;;;;;4960671;28;10020;-85
2022/07/04 03:02:26;;;;;;;;;0.00;0.00;;;;;;;;4959025;28;9910;-85
2022/07/04 03:04:54;;;;;;;;;0.00;0.00;;;;;;;;4939536;28;10077;-85
2022/07/04 03:07:21;;;;;;;;;1.00;1.00;;;;;;;;4959643;28;10119;-87
2022/07/04 03:09:48;;;;;;;;;0.00;0.00;;;;;;;;4938635;28;10071;-85
2022/07/04 03:12:15;;;;;;;;;0.00;0.00;;;;;;;;4954747;28;10119;-87
2022/07/04 03:14:43;;;;;;;;;0.00;0.00;;;;;;;;4956910;28;10281;-87
2022/07/04 03:17:10;;;;;;;;;0.00;0.00;;;;;;;;4955770;28;10110;-87
2022/07/04 03:19:39;;;;;;;;;0.00;0.00;;;;;;;;4937092;28;10216;-86
2022/07/04 03:22:06;;;;;;;;;0.00;0.00;;;;;;;;4940103;28;10241;-86
2022/07/04 03:24:35;;;;;;;;;0.00;0.00;;;;;;;;4954267;28;11015;-87
2022/07/04 03:27:03;;;;;;;;;1.50;0.00;;;;;;;;4963121;28;10136;-86
2022/07/04 03:29:30;;;;;;;;;0.00;0.00;;;;;;;;4946954;28;10175;-85
2022/07/04 03:31:57;;;;;;;;;0.00;0.00;;;;;;;;4944282;28;10149;-85
2022/07/04 03:34:25;;;;;;;;;0.00;0.00;;;;;;;;4958762;28;10196;-85
2022/07/04 03:36:54;;;;;;;;;0.00;0.00;;;;;;;;4945526;28;10231;-84
2022/07/04 03:39:21;;;;;;;;;0.00;0.00;;;;;;;;4959659;28;10321;-84
2022/07/04 03:41:51;;;;;;;;;0.00;0.00;;;;;;;;4937852;28;10300;-85
2022/07/04 03:44:18;;;;;;;;;0.00;0.00;;;;;;;;4956541;28;10372;-85
2022/07/04 03:46:46;;;;;;;;;0.00;0.00;;;;;;;;4931719;28;10230;-85
2022/07/04 03:49:13;;;;;;;;;0.00;0.00;;;;;;;;4962673;28;10135;-85
2022/07/04 03:52:17;;;;;;;;;0.00;0.00;;;;;;;;4962879;28;10232;-85
2022/07/04 03:54:48;;;;;;;;;0.00;0.00;;;;;;;;4941736;28;10323;-85
2022/07/04 03:57:21;;;;;;;;;0.00;0.00;;;;;;;;4949634;28;10053;-85
2022/07/04 03:59:49;;;;;;;;;0.00;0.00;;;;;;;;4962032;28;10161;-85
2022/07/04 04:02:16;;;;;;;;;0.00;0.00;;;;;;;;4947979;28;10106;-88
2022/07/04 04:07:29;;;;;;;;;1.00;0.00;;;;;;;;4943543;28;10168;-87
2022/07/04 04:09:57;;;;;;;;;2.25;0.00;;;;;;;;4958141;28;10372;-87
2022/07/04 04:12:25;;;;;;;;;0.00;0.00;;;;;;;;4961303;28;10225;-87
2022/07/04 04:14:52;;;;;;;;;0.00;0.00;;;;;;;;4962215;28;10228;-87
2022/07/04 04:20:40;;;;;;;;;0.00;0.00;;;;;;;;4899353;29;10277;-87
2022/07/04 04:23:11;;;;;;;;;0.00;0.00;;;;;;;;4901978;29;10200;-87
2022/07/04 04:25:40;;;;;;;;;0.00;0.00;;;;;;;;4946945;28;10313;-86
2022/07/04 04:28:07;;;;;;;;;0.00;0.00;;;;;;;;4946893;28;10467;-87
2022/07/04 04:30:35;;;;;;;;;1.00;1.00;;;;;;;;4959867;28;10133;-86
2022/07/04 04:33:03;;;;;;;;;0.00;0.00;;;;;;;;4935268;28;11064;-86
2022/07/04 04:35:30;;;;;;;;;0.25;0.25;;;;;;;;4956546;28;10336;-88
2022/07/04 04:37:58;;;;;;;;;0.00;0.00;;;;;;;;4956414;28;11084;-85
2022/07/04 04:40:25;;;;;;;;;0.00;0.00;;;;;;;;4956046;28;10311;-84
2022/07/04 04:42:53;;;;;;;;;0.00;0.00;;;;;;;;4958614;28;10271;-85
2022/07/04 04:45:21;;;;;;;;;0.00;0.00;;;;;;;;4955581;28;10515;-86
2022/07/04 04:47:48;;;;;;;;;0.25;0.25;;;;;;;;4959488;28;10442;-86
2022/07/04 04:50:15;;;;;;;;;0.00;0.00;;;;;;;;4945882;28;10525;-86
2022/07/04 04:52:43;;;;;;;;;0.00;0.00;;;;;;;;4937827;28;10374;-87
2022/07/04 04:55:10;;;;;;;;;0.00;0.00;;;;;;;;4961206;28;10324;-87
2022/07/04 04:57:38;;;;;;;;;0.75;0.75;;;;;;;;4959117;28;10225;-85
2022/07/04 05:00:09;;;;;;;;;1.00;1.00;;;;;;;;4958341;28;10136;-85
2022/07/04 05:02:37;;;;;;;;;3.00;2.00;;;;;;;;4962201;28;10158;-86
2022/07/04 05:05:06;;;;;;;;;2.00;2.00;;;;;;;;4956540;28;10223;-85
2022/07/04 05:07:33;;;;;;;;;1.00;1.00;;;;;;;;4958672;28;10137;-86
2022/07/04 05:10:01;;;;;;;;;3.00;1.25;;;;;;;;4938739;28;10098;-87
2022/07/04 05:12:28;;;;;;;;;1.00;1.00;;;;;;;;4939685;28;10073;-82
2022/07/04 05:14:56;;;;;;;;;1.00;1.00;;;;;;;;4940197;28;9902;-83
2022/07/04 05:17:25;;;;;;;;;2.00;2.00;;;;;;;;4944236;28;9819;-81
2022/07/04 05:19:52;;;;;;;;;2.00;2.00;;;;;;;;4962092;28;11851;-80
2022/07/04 05:22:19;;;;;;;;;2.00;2.00;;;;;;;;4958000;28;10942;-86
2022/07/04 05:24:47;;;;;;;;;1.25;1.00;;;;;;;;4958690;28;9748;-80
2022/07/04 05:27:14;;;;;;;;;1.00;1.00;;;;;;;;4958541;28;9644;-78
2022/07/04 05:29:41;;;;;;;;;1.50;1.50;;;;;;;;4951995;28;9596;-81
2022/07/04 05:32:09;;;;;;;;;2.67;1.67;;;;;;;;4943206;28;9489;-79
2022/07/04 05:34:39;;;;;;;;;2.00;2.00;;;;;;;;4954502;28;9453;-81
2022/07/04 05:37:06;;;;;;;;;2.67;1.00;;;;;;;;4956122;28;9334;-81
2022/07/04 05:39:33;;;;;;;;;1.00;1.00;;;;;;;;4939931;28;10169;-79
2022/07/04 05:42:01;;;;;;;;;3.00;2.00;;;;;;;;4958140;28;9255;-79
2022/07/04 05:44:29;;;;;;;;;2.33;2.33;;;;;;;;4962373;28;10824;-79
2022/07/04 05:46:56;;;;;;;;;0.33;0.33;;;;;;;;4950826;28;9164;-86
2022/07/04 05:49:24;;;;;;;;;3.00;2.00;;;;;;;;4940899;28;9082;-81
2022/07/04 05:51:53;;;;;;;;;1.25;1.25;;;;;;;;4945286;28;8987;-78
2022/07/04 05:54:20;;;;;;;;;1.00;1.00;;;;;;;;4943928;28;8878;-85
2022/07/04 05:56:47;;;;;;;;;1.00;1.00;;;;;;;;4957137;28;8897;-83
2022/07/04 05:59:15;;;;;;;;;0.00;0.00;;;;;;;;4953118;28;8907;-83
2022/07/04 06:01:43;;;;;;;;;1.75;1.00;;;;;;;;4927378;28;8820;-79
2022/07/04 06:04:10;;;;;;;;;1.00;1.00;;;;;;;;4961385;28;8897;-80
2022/07/04 06:06:38;;;;;;;;;2.00;2.00;;;;;;;;4952769;28;8877;-87
2022/07/04 06:09:07;;;;;;;;;1.00;1.00;;;;;;;;4959285;28;8917;-83
2022/07/04 06:11:35;;;;;;;;;0.75;0.75;;;;;;;;4956511;28;9006;-80
2022/07/04 06:14:02;;;;;;;;;1.25;1.25;;;;;;;;4962467;28;8867;-85
2022/07/04 06:16:30;;;;;;;;;1.00;1.00;;;;;;;;4956524;28;9063;-85
2022/07/04 06:18:57;;;;;;;;;1.25;1.25;;;;;;;;4956245;28;8906;-83
2022/07/04 06:21:24;;;;;;;;;1.00;1.00;;;;;;;;4939338;28;8852;-79
2022/07/04 06:23:52;;;;;;;;;2.00;1.00;;;;;;;;4961566;28;8933;-81
2022/07/04 06:26:20;;;;;;;;;3.00;1.00;;;;;;;;4958866;28;8906;-86
2022/07/04 06:28:48;;;;;;;;;2.00;2.00;;;;;;;;4966762;28;8899;-85
2022/07/04 06:31:15;;;;;;;;;2.75;1.00;;;;;;;;4941714;28;8840;-89
2022/07/04 06:36:28;;;;;;;;;1.00;1.00;;;;;;;;4943034;28;8861;-87
2022/07/04 06:38:55;;;;;;;;;2.00;2.00;;;;;;;;4960228;28;8921;-86
2022/07/04 06:41:24;;;;;;;;;2.00;2.00;;;;;;;;4938978;28;9692;-85
2022/07/04 06:43:55;;;;;;;;;3.25;3.00;;;;;;;;4941261;28;8907;-88
2022/07/04 06:46:23;;;;;;;;;1.00;1.00;;;;;;;;4943368;28;9628;-86
2022/07/04 06:48:50;;;;;;;;;3.00;3.00;;;;;;;;4959492;28;8925;-86
2022/07/04 06:51:18;;;;;;;;;1.25;1.25;;;;;;;;4942707;28;8956;-84
2022/07/04 06:53:45;;;;;;;;;2.50;2.50;;;;;;;;4959748;28;8871;-87
2022/07/04 06:56:13;;;;;;;;;0.75;0.75;;;;;;;;4950419;28;8898;-85
2022/07/04 06:58:42;;;;;;;;;2.75;2.75;;;;;;;;4964535;28;9652;-86
2022/07/04 07:01:09;;;;;;;;;2.00;2.00;;;;;;;;4970220;28;8807;-85
2022/07/04 07:03:36;;;;;;;;;2.50;2.50;;;;;;;;4954822;28;8913;-86
2022/07/04 07:06:04;;;;;;;;;2.25;2.25;;;;;;;;4961565;28;8889;-84
2022/07/04 07:08:32;;;;;;;;;3.00;2.00;;;;;;;;4965750;28;8887;-83
2022/07/04 07:11:12;;;;;;;;;2.00;2.00;;;;;;;;4962957;28;8904;-76
2022/07/04 07:13:41;;;;;;;;;1.50;1.50;;;;;;;;4961564;28;8881;-78
2022/07/04 07:16:08;;;;;;;;;2.00;1.75;;;;;;;;4969002;28;8879;-78
2022/07/04 07:18:36;;;;;;;;;3.50;2.00;;;;;;;;4962089;28;8905;-75
2022/07/04 07:21:04;;;;;;;;;2.25;2.25;;;;;;;;4963248;28;8875;-75
2022/07/04 07:23:31;;;;;;;;;3.00;1.00;;;;;;;;4960592;28;8895;-76
2022/07/04 07:25:59;;;;;;;;;2.00;2.00;;;;;;;;4964331;28;9010;-76
2022/07/04 07:28:26;;;;;;;;;2.00;1.50;;;;;;;;4958356;28;8970;-78
2022/07/04 07:30:55;;;;;;;;;2.00;2.00;;;;;;;;4949718;28;8806;-76
2022/07/04 07:33:22;;;;;;;;;1.75;1.75;;;;;;;;4959662;28;8990;-80
2022/07/04 07:35:49;;;;;;;;;3.00;2.00;;;;;;;;4967573;28;8883;-77
2022/07/04 07:38:16;;;;;;;;;1.00;1.00;;;;;;;;4961072;28;9463;-76
2022/07/04 07:40:44;;;;;;;;;1.00;1.00;;;;;;;;4959687;28;8863;-76
2022/07/04 07:43:11;;;;;;;;;3.00;3.00;;;;;;;;4955485;28;8855;-78
2022/07/04 07:45:38;;;;;;;;;9.00;9.00;;;;;;;;4941912;28;8912;-79
2022/07/04 07:48:08;;;;;;;;;5.00;3.00;;;;;;;;4946697;28;9682;-81
2022/07/04 07:50:36;;;;;;;;;2.50;2.50;;;;;;;;4958681;28;9743;-75
2022/07/04 07:53:03;;;;;;;;;2.75;2.75;;;;;;;;4961238;28;8891;-78
2022/07/04 07:55:31;;;;;;;;;3.25;3.25;;;;;;;;4943279;28;8905;-75
2022/07/04 07:57:59;;;;;;;;;2.25;2.25;;;;;;;;4959195;28;8917;-77
2022/07/04 08:00:27;;;;;;;;;3.00;3.00;;;;;;;;4956426;28;8777;-75
2022/07/04 08:05:40;;;;;;;;;2.00;2.00;;;;;;;;4942576;28;8863;-76
2022/07/04 08:08:09;;;;;;;;;1.00;1.00;;;;;;;;4960080;28;8932;-75
2022/07/04 08:10:37;;;;;;;;;1.00;1.00;;;;;;;;4963133;28;8922;-74
2022/07/04 08:13:05;;;;;;;;;0.00;0.00;;;;;;;;4965723;28;8881;-76
2022/07/04 08:15:32;;;;;;;;;1.20;1.20;;;;;;;;4961628;28;8863;-74
2022/07/04 08:18:00;;;;;;;;;3.00;3.00;;;;;;;;4959294;28;8858;-77
2022/07/04 08:20:28;;;;;;;;;1.00;1.00;;;;;;;;4959050;28;8876;-77
2022/07/04 08:22:56;;;;;;;;;1.00;1.00;;;;;;;;4956988;28;9610;-78
2022/07/04 08:25:24;;;;;;;;;2.80;1.20;;;;;;;;4955620;28;8899;-77
2022/07/04 08:27:51;;;;;;;;;2.00;2.00;;;;;;;;4941939;28;8872;-78
2022/07/04 08:30:19;;;;;;;;;1.80;1.80;;;;;;;;4962022;28;8883;-79
2022/07/04 08:32:46;;;;;;;;;2.00;2.00;;;;;;;;4962358;28;9059;-78
2022/07/04 08:35:13;;;;;;;;;0.80;0.80;;;;;;;;4964467;28;8886;-78
2022/07/04 08:37:41;;;;;;;;;1.00;1.00;;;;;;;;4957583;28;9699;-77
2022/07/04 08:40:11;;;;;;;;;1.80;1.80;;;;;;;;4954903;28;8865;-76
2022/07/04 08:42:40;;;;;;;;;2.00;2.00;;;;;;;;4961830;28;9544;-76
2022/07/04 08:45:08;;;;;;;;;2.00;2.00;;;;;;;;4960722;28;8897;-76
2022/07/04 08:47:38;;;;;;;;;0.80;0.80;;;;;;;;4958754;28;8901;-75
2022/07/04 08:50:11;;;;;;;;;0.80;0.80;;;;;;;;4955825;28;8916;-75
2022/07/04 08:52:40;;;;;;;;;1.00;1.00;;;;;;;;4953223;28;8953;-76
2022/07/04 09:00:40;;;;;;;;;1.20;1.20;;;;;;;;4959237;28;9624;-75
2022/07/04 09:03:08;;;;;;;;;1.20;1.20;;;;;;;;4960283;28;8878;-76
2022/07/04 09:05:35;;;;;;;;;2.00;2.00;;;;;;;;4959109;28;8916;-75
2022/07/04 09:08:04;;;;;;;;;1.00;1.00;;;;;;;;4957791;28;8883;-76
2022/07/04 09:10:33;;;;;;;;;0.80;0.80;;;;;;;;4965881;28;8896;-76
2022/07/04 09:13:03;;;;;;;;;1.80;1.80;;;;;;;;4957238;28;9654;-75
2022/07/04 09:15:31;;;;;;;;;1.40;1.40;;;;;;;;4958352;28;8871;-75
2022/07/04 09:17:58;;;;;;;;;0.20;0.20;;;;;;;;4956823;28;9041;-74
2022/07/04 09:20:26;;;;;;;;;0.00;0.00;;;;;;;;4968075;28;8893;-75
2022/07/04 09:22:55;;;;;;;;;1.00;1.00;;;;;;;;4963081;28;9660;-74
2022/07/04 09:25:24;;;;;;;;;1.00;1.00;;;;;;;;4958103;28;9604;-75
2022/07/04 09:27:53;;;;;;;;;0.00;0.00;;;;;;;;4958239;28;8895;-74
2022/07/04 09:30:22;;;;;;;;;1.00;1.00;;;;;;;;4953937;28;8898;-74
2022/07/04 09:32:51;;;;;;;;;0.00;0.00;;;;;;;;4961131;28;8892;-74
2022/07/04 09:35:21;;;;;;;;;0.00;0.00;;;;;;;;4956079;28;8873;-74
2022/07/04 09:37:50;;;;;;;;;0.40;0.40;;;;;;;;4962325;28;8894;-74
2022/07/04 09:40:25;;;;;;;;;1.00;1.00;;;;;;;;4964373;28;8859;-75
2022/07/04 09:42:55;;;;;;;;;1.00;1.00;;;;;;;;4953776;28;8897;-75
2022/07/04 09:45:24;;;;;;;;;0.80;0.80;;;;;;;;4954829;28;8863;-74
2022/07/04 09:47:54;;;;;;;;;0.80;0.00;;;;;;;;4955595;28;8885;-75
2022/07/04 09:50:22;;;;;;;;;0.80;0.80;;;;;;;;4960031;28;8883;-75
2022/07/04 09:52:53;;;;;;;;;1.40;0.20;;;;;;;;4956749;28;8877;-75
2022/07/04 09:55:27;;;;;;;;;0.00;0.00;;;;;;;;4956159;28;8950;-75
2022/07/04 09:57:58;;;;;;;;;0.00;0.00;;;;;;;;4951250;28;8858;-73
2022/07/04 10:00:27;;;;;;;;;0.20;0.00;;;;;;;;4955483;28;8898;-74
2022/07/04 10:02:56;;;;;;;;;0.00;0.00;;;;;;;;4958676;28;8867;-73
2022/07/04 10:05:26;;;;;;;;;0.20;0.20;;;;;;;;4962740;28;8889;-74
2022/07/04 10:07:56;;;;;;;;;0.40;0.40;;;;;;;;4957431;28;9727;-74
2022/07/04 10:10:32;;;;;;;;;0.80;0.80;;;;;;;;4958879;28;8863;-75
2022/07/04 10:13:03;;;;;;;;;0.00;0.00;;;;;;;;4957354;28;8905;-75
2022/07/04 10:15:31;;;;;;;;;1.00;1.00;;;;;;;;4957468;28;8855;-75
2022/07/04 10:17:59;;;;;;;;;0.80;0.80;;;;;;;;4958168;28;8923;-80
2022/07/04 10:20:27;;;;;;;;;1.20;0.20;;;;;;;;4959206;28;8865;-75
2022/07/04 10:22:54;;;;;;;;;0.00;0.00;;;;;;;;4958367;28;8875;-75
2022/07/04 10:25:22;;;;;;;;;0.40;0.40;;;;;;;;4943173;28;8868;-75
2022/07/04 10:27:51;;;;;;;;;0.60;0.60;;;;;;;;4958089;28;8912;-75
2022/07/04 10:30:24;;;;;;;;;0.60;0.60;;;;;;;;4951921;28;8933;-77
2022/07/04 10:32:51;;;;;;;;;0.00;0.00;;;;;;;;4953904;28;10207;-76
2022/07/04 10:35:19;;;;;;;;;0.20;0.00;;;;;;;;4953714;28;8923;-75
2022/07/04 10:38:07;;;;;;;;;0.00;0.00;;;;;;;;4955881;28;8906;-76
2022/07/04 10:40:43;;;;;;;;;0.80;0.80;;;;;;;;4955315;28;9021;-78
2022/07/04 10:43:41;;;;;;;;;0.00;0.00;;;;;;;;4953945;28;8865;-76
2022/07/04 10:46:32;;;;;;;;;0.20;0.20;;;;;;;;4959501;28;8941;-77
2022/07/04 10:49:02;;;;;;;;;0.60;0.60;;;;;;;;4962836;28;9037;-75
2022/07/04 10:51:42;;;;;;;;;0.40;0.40;;;;;;;;4963432;28;8905;-77
2022/07/04 10:54:12;;;;;;;;;0.40;0.40;;;;;;;;4956314;28;8894;-78
2022/07/04 10:56:46;;;;;;;;;0.40;0.40;;;;;;;;4942973;28;8875;-77
2022/07/04 10:59:15;;;;;;;;;0.80;0.80;;;;;;;;4958792;28;8891;-77
2022/07/04 11:01:49;;;;;;;;;1.80;0.80;;;;;;;;4955931;28;9712;-78
2022/07/04 11:04:45;;;;;;;;;0.40;0.00;;;;;;;;4964902;28;8861;-76
2022/07/04 11:07:13;;;;;;;;;0.00;0.00;;;;;;;;4953390;28;8876;-74
2022/07/04 11:09:42;;;;;;;;;0.00;0.00;;;;;;;;4962518;28;8852;-76
2022/07/04 11:12:14;;;;;;;;;0.20;0.20;;;;;;;;4958012;28;9007;-79
2022/07/04 11:14:43;;;;;;;;;0.80;0.80;;;;;;;;4960070;28;8889;-84
2022/07/04 11:17:13;;;;;;;;;0.00;0.00;;;;;;;;4960523;28;10532;-83
2022/07/04 11:19:41;;;;;;;;;0.20;0.00;;;;;;;;4954867;28;8898;-88
2022/07/04 11:22:10;;;;;;;;;0.00;0.00;;;;;;;;4960270;28;9041;-89
2022/07/04 11:24:38;;;;;;;;;0.00;0.00;;;;;;;;4959981;28;8874;-88
2022/07/04 11:27:08;;;;;;;;;0.00;0.00;;;;;;;;4962648;28;8913;-87
2022/07/04 11:29:36;;;;;;;;;0.20;0.00;;;;;;;;4960199;28;8863;-90
2022/07/04 11:32:07;;;;;;;;;0.00;0.00;;;;;;;;4960772;28;8843;-84
2022/07/04 11:34:36;;;;;;;;;0.00;0.00;;;;;;;;4958020;28;8897;-86
2022/07/04 11:37:04;;;;;;;;;0.00;0.00;;;;;;;;4952360;28;8994;-85
2022/07/04 11:39:31;;;;;;;;;0.00;0.00;;;;;;;;4956939;28;8853;-84
2022/07/04 11:47:35;;;;;;;;;0.00;0.00;;;;;;;;4963253;28;8854;-86
2022/07/04 11:50:06;;;;;;;;;1.40;0.80;;;;;;;;4938485;28;8888;-86
2022/07/04 11:52:41;;;;;;;;;0.00;0.00;;;;;;;;4960085;28;8863;-85
2022/07/04 11:55:10;;;;;;;;;0.00;0.00;;;;;;;;4961216;28;8905;-84
2022/07/04 11:57:39;;;;;;;;;0.00;0.00;;;;;;;;4964239;28;8903;-86
2022/07/04 12:00:09;;;;;;;;;0.00;0.00;;;;;;;;4965633;28;8895;-84
2022/07/04 12:02:37;;;;;;;;;0.00;0.00;;;;;;;;4963721;28;9171;-83
2022/07/04 12:05:11;;;;;;;;;0.00;0.00;;;;;;;;4960320;28;8896;-88
2022/07/04 12:07:41;;;;;;;;;0.00;0.00;;;;;;;;4958944;28;9799;-88
2022/07/04 12:10:10;;;;;;;;;0.00;0.00;;;;;;;;4965380;28;9640;-81
2022/07/04 12:12:51;;;;;;;;;0.00;0.00;;;;;;;;4963754;28;8881;-83
2022/07/04 12:15:18;;;;;;;;;0.00;0.00;;;;;;;;4959508;28;8886;-83
2022/07/04 12:17:45;;;;;;;;;0.00;0.00;;;;;;;;4959259;28;9008;-87
2022/07/04 12:20:17;;;;;;;;;1.00;0.00;;;;;;;;4961715;28;8879;-85
2022/07/04 12:22:50;;;;;;;;;0.00;0.00;;;;;;;;4963163;28;8895;-85
2022/07/04 12:25:23;;;;;;;;;0.00;0.00;;;;;;;;4964619;28;8916;-84
2022/07/04 12:27:54;;;;;;;;;0.00;0.00;;;;;;;;4964521;28;8994;-89
2022/07/04 12:30:22;;;;;;;;;0.00;0.00;;;;;;;;4964265;28;8850;-87
2022/07/04 12:32:51;;;;;;;;;0.00;0.00;;;;;;;;4956995;28;8995;-85
2022/07/04 12:35:41;;;;;;;;;0.00;0.00;;;;;;;;4960576;28;9016;-81
2022/07/04 12:38:09;;;;;;;;;1.00;0.00;;;;;;;;4960898;28;8930;-85
2022/07/04 12:40:38;;;;;;;;;0.00;0.00;;;;;;;;4958158;28;8955;-89
2022/07/04 12:43:05;;;;;;;;;0.00;0.00;;;;;;;;4959958;28;8863;-83
2022/07/04 12:45:45;;;;;;;;;0.00;0.00;;;;;;;;4958416;28;9037;-83
2022/07/04 12:48:26;;;;;;;;;0.00;0.00;;;;;;;;4956154;28;9729;-86
2022/07/04 12:50:56;;;;;;;;;0.00;0.00;;;;;;;;4959156;28;8879;-83
2022/07/04 12:53:26;;;;;;;;;0.00;0.00;;;;;;;;4956023;28;8945;-82
2022/07/04 12:55:54;;;;;;;;;0.00;0.00;;;;;;;;4959758;28;8852;-88
2022/07/04 12:58:21;;;;;;;;;0.00;0.00;;;;;;;;4941923;28;9010;-83
2022/07/04 13:00:49;;;;;;;;;0.00;0.00;;;;;;;;4942707;28;8860;-89
2022/07/04 13:03:16;;;;;;;;;0.00;0.00;;;;;;;;4943241;28;8929;-84
2022/07/04 13:05:43;;;;;;;;;0.00;0.00;;;;;;;;4954738;28;8872;-78
2022/07/04 13:08:12;;;;;;;;;0.00;0.00;;;;;;;;4955052;28;8890;-84
2022/07/04 13:10:40;;;;;;;;;1.00;1.00;;;;;;;;4959939;28;8875;-80
2022/07/04 13:13:09;;;;;;;;;0.00;0.00;;;;;;;;4941596;28;8883;-85
2022/07/04 13:15:36;;;;;;;;;0.00;0.00;;;;;;;;4958390;28;8887;-85
2022/07/04 13:18:04;;;;;;;;;0.00;0.00;;;;;;;;4941806;28;8953;-85
2022/07/04 13:20:32;;;;;;;;;0.00;0.00;;;;;;;;4962900;28;8985;-86
2022/07/04 13:22:59;;;;;;;;;0.00;0.00;;;;;;;;4963785;28;9680;-87
2022/07/04 13:25:28;;;;;;;;;0.00;0.00;;;;;;;;4957213;28;8913;-82
2022/07/04 13:27:55;;;;;;;;;0.00;0.00;;;;;;;;4956955;28;8874;-87
2022/07/04 13:30:23;;;;;;;;;0.00;0.00;;;;;;;;4951563;28;8855;-85
2022/07/04 13:32:50;;;;;;;;;0.00;0.00;;;;;;;;4936158;28;8875;-82
2022/07/04 13:35:17;;;;;;;;;0.00;0.00;;;;;;;;4958580;28;8897;-82
2022/07/04 13:37:44;;;;;;;;;0.00;0.00;;;;;;;;4954737;28;8909;-82
2022/07/04 13:40:14;;;;;;;;;0.00;0.00;;;;;;;;4955893;28;8865;-82
2022/07/04 13:43:00;;;;;;;;;0.00;0.00;;;;;;;;4940276;28;8889;-82
2022/07/04 13:45:28;;;;;;;;;0.00;0.00;;;;;;;;4958589;28;8878;-82
2022/07/04 13:47:56;;;;;;;;;0.00;0.00;;;;;;;;4958897;28;8911;-86
2022/07/04 13:50:23;;;;;;;;;0.40;0.00;;;;;;;;4961319;28;8919;-81
2022/07/04 13:52:51;;;;;;;;;0.00;0.00;;;;;;;;4946036;28;8867;-83
2022/07/04 13:55:18;;;;;;;;;1.00;0.00;;;;;;;;4963653;28;9691;-82
2022/07/04 13:57:47;;;;;;;;;0.00;0.00;;;;;;;;4942361;28;8962;-84
2022/07/04 14:00:15;;;;;;;;;0.00;0.00;;;;;;;;4935155;28;8897;-82
2022/07/04 14:02:43;;;;;;;;;0.00;0.00;;;;;;;;4935519;28;9604;-81
2022/07/04 14:05:10;;;;;;;;;0.00;0.00;;;;;;;;4938498;28;8918;-83
2022/07/04 14:07:38;;;;;;;;;0.00;0.00;;;;;;;;4957261;28;8887;-82
2022/07/04 14:10:06;;;;;;;;;0.00;0.00;;;;;;;;4960674;28;8933;-83
2022/07/04 14:12:34;;;;;;;;;0.00;0.00;;;;;;;;4939754;28;8891;-84
2022/07/04 14:15:04;;;;;;;;;0.00;0.00;;;;;;;;4958154;28;8859;-81
2022/07/04 14:17:31;;;;;;;;;0.00;0.00;;;;;;;;4951989;28;8885;-82
2022/07/04 14:19:58;;;;;;;;;0.00;0.00;;;;;;;;4953789;28;8889;-81
2022/07/04 14:22:26;;;;;;;;;0.20;0.20;;;;;;;;4958647;28;9004;-81
2022/07/04 14:24:53;;;;;;;;;1.00;0.00;;;;;;;;4959508;28;8893;-82
2022/07/04 14:27:21;;;;;;;;;0.00;0.00;;;;;;;;4960072;28;8875;-83
2022/07/04 14:29:48;;;;;;;;;0.00;0.00;;;;;;;;4960406;28;8991;-82
2022/07/04 14:32:17;;;;;;;;;0.00;0.00;;;;;;;;4956829;28;8802;-85
2022/07/04 14:34:44;;;;;;;;;0.80;0.80;;;;;;;;4943413;28;8887;-81
2022/07/04 14:37:12;;;;;;;;;0.00;0.00;;;;;;;;4936074;28;8889;-84
2022/07/04 14:39:39;;;;;;;;;0.00;0.00;;;;;;;;4955392;28;8873;-83
2022/07/04 14:42:07;;;;;;;;;0.00;0.00;;;;;;;;4963869;28;9028;-83
2022/07/04 14:44:35;;;;;;;;;0.00;0.00;;;;;;;;4963435;28;8886;-84
2022/07/04 14:47:03;;;;;;;;;0.00;0.00;;;;;;;;4959938;28;8913;-85
2022/07/04 14:49:32;;;;;;;;;0.00;0.00;;;;;;;;4961034;28;8857;-85
2022/07/04 14:52:01;;;;;;;;;0.00;0.00;;;;;;;;4936353;28;8966;-83
2022/07/04 14:54:28;;;;;;;;;0.00;0.00;;;;;;;;4959807;28;8908;-83
2022/07/04 14:56:56;;;;;;;;;0.00;0.00;;;;;;;;4959164;28;8968;-81
2022/07/04 14:59:23;;;;;;;;;0.00;0.00;;;;;;;;4962932;28;8861;-84
2022/07/04 15:01:52;;;;;;;;;0.00;0.00;;;;;;;;4959312;28;8849;-84
2022/07/04 15:04:20;;;;;;;;;0.00;0.00;;;;;;;;4956947;28;8860;-82
2022/07/04 15:06:48;;;;;;;;;0.00;0.00;;;;;;;;4952377;28;8885;-84
2022/07/04 15:09:16;;;;;;;;;0.00;0.00;;;;;;;;4941321;28;8865;-86
2022/07/04 15:11:45;;;;;;;;;0.00;0.00;;;;;;;;4952173;28;8913;-86
2022/07/04 15:14:12;;;;;;;;;0.00;0.00;;;;;;;;4955938;28;9809;-83
2022/07/04 15:16:39;;;;;;;;;0.00;0.00;;;;;;;;4955705;28;8915;-77
2022/07/04 15:19:07;;;;;;;;;0.00;0.00;;;;;;;;4953469;28;8883;-80
2022/07/04 15:24:21;;;;;;;;;0.00;0.00;;;;;;;;4953795;28;8850;-87
2022/07/04 15:26:50;;;;;;;;;0.00;0.00;;;;;;;;4957561;28;8905;-85
2022/07/04 15:29:18;;;;;;;;;0.00;0.00;;;;;;;;4963480;28;8907;-85
2022/07/04 15:31:48;;;;;;;;;0.00;0.00;;;;;;;;4962151;28;8938;-87